Time;durP1;ratioP1;P1;durP2;ratioP2;P2;SDS_P1;SDS_P2;PMS_P1;PMS_P2;Temp;Humidity;BMP_temperature;BMP_pressure;BME280_temperature;BME280_humidity;BME280_pressure;Samples;Min_cycle;Max_cycle;Signal;HPM_P1;HPM_P2
2021/01/18 00:00:19;;;;;;;;;;;3.60;99.90;;;;;;4318707;33;20423;-76
2021/01/18 00:02:49;;;;;;;;;;;3.50;99.90;;;;;;4318689;33;20020;-76
2021/01/18 00:05:18;;;;;;;;;;;3.60;99.90;;;;;;4318858;33;20020;-76
2021/01/18 00:07:52;;;;;;;;;;;3.50;99.90;;;;;;4319583;33;20069;-76
2021/01/18 00:10:21;;;;;;;;;;;3.50;99.90;;;;;;4318334;33;20013;-76
2021/01/18 00:12:52;;;;;;;;;;;3.50;99.90;;;;;;4317288;33;23047;-76
2021/01/18 00:15:19;;;;;;;;;;;3.50;99.90;;;;;;4319075;33;20024;-77
2021/01/18 00:17:47;;;;;;;;;;;3.50;99.90;;;;;;4319067;33;20069;-77
2021/01/18 00:20:14;;;;;;;;;;;3.50;99.90;;;;;;4317978;33;20050;-76
2021/01/18 00:22:45;;;;;;;;;;;3.50;99.90;;;;;;4318919;33;20032;-76
2021/01/18 00:25:18;;;;;;;;;;;3.50;99.90;;;;;;4318321;33;20367;-76
2021/01/18 00:27:47;;;;;;;;;;;3.50;99.90;;;;;;4318032;33;20009;-77
2021/01/18 00:30:17;;;;;;;;;;;3.50;99.90;;;;;;4318824;33;20014;-76
2021/01/18 00:32:44;;;;;;;;;;;3.50;99.90;;;;;;4306118;33;20422;-76
2021/01/18 00:35:21;;;;;;;;;;;3.50;99.90;;;;;;4318225;33;20021;-76
2021/01/18 00:37:51;;;;;;;;;;;3.50;99.90;;;;;;4306171;33;20023;-76
2021/01/18 00:40:22;;;;;;;;;;;3.60;99.90;;;;;;4318348;33;29480;-76
2021/01/18 00:42:51;;;;;;;;;;;3.60;99.90;;;;;;4319237;33;20399;-76
2021/01/18 00:45:21;;;;;;;;;;;3.50;99.90;;;;;;4318892;33;20058;-76
2021/01/18 00:47:53;;;;;;;;;;;3.50;99.90;;;;;;4318239;33;23784;-76
2021/01/18 00:50:21;;;;;;;;;;;3.50;99.90;;;;;;4318249;33;26541;-77
2021/01/18 00:52:49;;;;;;;;;;;3.50;99.90;;;;;;4318445;33;20395;-77
2021/01/18 00:55:20;;;;;;;;;;;3.50;99.90;;;;;;4318853;33;20053;-77
2021/01/18 00:57:49;;;;;;;;;;;3.50;99.90;;;;;;4305566;33;20430;-76
2021/01/18 01:00:23;;;;;;;;;;;3.50;99.90;;;;;;4318654;33;20006;-76
2021/01/18 01:02:56;;;;;;;;;;;3.50;99.90;;;;;;4317553;33;27570;-76
2021/01/18 01:05:27;;;;;;;;;;;3.50;99.90;;;;;;4304298;33;34690;-77
2021/01/18 01:07:55;;;;;;;;;;;3.50;99.90;;;;;;4305026;33;22450;-76
2021/01/18 01:10:23;;;;;;;;;;;3.50;99.90;;;;;;4317320;33;32971;-77
2021/01/18 01:13:02;;;;;;;;;;;3.50;99.90;;;;;;4318501;33;20136;-77
2021/01/18 01:15:32;;;;;;;;;;;3.50;99.90;;;;;;4317032;33;20416;-76
2021/01/18 01:17:59;;;;;;;;;;;3.50;99.90;;;;;;4316391;33;38719;-76
2021/01/18 01:20:28;;;;;;;;;;;3.50;99.90;;;;;;4316995;33;19998;-77
2021/01/18 01:22:58;;;;;;;;;;;3.50;99.90;;;;;;4305080;33;20443;-76
2021/01/18 01:25:27;;;;;;;;;;;3.50;99.90;;;;;;4318468;33;20006;-76
2021/01/18 01:27:57;;;;;;;;;;;3.50;99.90;;;;;;4318401;33;20069;-76
2021/01/18 01:30:26;;;;;;;;;;;3.50;99.90;;;;;;4317730;33;22899;-77
2021/01/18 01:32:54;;;;;;;;;;;3.50;99.90;;;;;;4316991;33;31817;-76
2021/01/18 01:35:25;;;;;;;;;;;3.60;99.90;;;;;;4304244;33;22113;-76
2021/01/18 01:37:54;;;;;;;;;;;3.60;99.90;;;;;;4317456;33;37035;-77
2021/01/18 01:40:24;;;;;;;;;;;3.50;99.90;;;;;;4317579;33;27664;-76
2021/01/18 01:42:51;;;;;;;;;;;3.50;99.90;;;;;;4317444;33;27505;-76
2021/01/18 01:45:18;;;;;;;;;;;3.50;99.90;;;;;;4318069;33;20027;-77
2021/01/18 01:47:56;;;;;;;;;;;3.60;99.90;;;;;;4317845;33;20396;-77
2021/01/18 01:50:23;;;;;;;;;;;3.60;99.90;;;;;;4318006;33;20069;-77
2021/01/18 01:53:09;;;;;;;;;;;3.60;99.90;;;;;;4318159;33;20075;-76
2021/01/18 01:55:41;;;;;;;;;;;3.60;99.90;;;;;;4304658;33;20002;-77
2021/01/18 01:58:08;;;;;;;;;;;3.60;99.90;;;;;;4305068;33;20053;-76
2021/01/18 02:00:38;;;;;;;;;;;3.60;99.90;;;;;;4317565;33;20065;-76
2021/01/18 02:03:08;;;;;;;;;;;3.60;99.90;;;;;;4317541;33;20073;-76
2021/01/18 02:05:36;;;;;;;;;;;3.60;99.90;;;;;;4317522;33;20002;-76
2021/01/18 02:08:11;;;;;;;;;;;3.60;99.90;;;;;;4316366;33;20033;-77
2021/01/18 02:10:38;;;;;;;;;;;3.60;99.90;;;;;;4317767;33;20009;-76
2021/01/18 02:13:29;;;;;;;;;;;3.50;99.90;;;;;;4316883;33;26325;-76
2021/01/18 02:16:02;;;;;;;;;;;3.50;99.90;;;;;;4315696;33;33672;-76
2021/01/18 02:18:47;;;;;;;;;;;3.60;99.90;;;;;;4317180;33;24976;-76
2021/01/18 02:21:34;;;;;;;;;;;3.60;99.90;;;;;;4317400;33;20024;-76
2021/01/18 02:24:13;;;;;;;;;;;3.60;99.90;;;;;;4317216;33;20050;-76
2021/01/18 02:26:59;;;;;;;;;;;3.50;99.90;;;;;;4317224;33;20062;-76
2021/01/18 02:29:26;;;;;;;;;;;3.60;99.90;;;;;;4317799;33;20016;-76
2021/01/18 02:31:56;;;;;;;;;;;3.60;99.90;;;;;;4304108;33;20398;-76
2021/01/18 02:34:43;;;;;;;;;;;3.50;99.90;;;;;;4317585;33;20013;-76
2021/01/18 02:37:16;;;;;;;;;;;3.60;99.90;;;;;;4315672;33;27815;-76
2021/01/18 02:39:43;;;;;;;;;;;3.60;99.90;;;;;;4317005;33;22286;-76
2021/01/18 02:42:15;;;;;;;;;;;3.60;99.90;;;;;;4315541;33;27584;-75
2021/01/18 02:44:45;;;;;;;;;;;3.50;99.90;;;;;;4317194;33;20365;-76
2021/01/18 02:47:13;;;;;;;;;;;3.60;99.90;;;;;;4315638;33;31172;-76
2021/01/18 02:49:45;;;;;;;;;;;3.60;99.90;;;;;;4317282;33;20020;-76
2021/01/18 02:52:15;;;;;;;;;;;3.60;99.90;;;;;;4316234;33;20006;-76
2021/01/18 02:54:47;;;;;;;;;;;3.60;99.90;;;;;;4315853;33;20082;-76
2021/01/18 02:57:17;;;;;;;;;;;3.50;99.90;;;;;;4317129;33;20010;-76
2021/01/18 02:59:45;;;;;;;;;;;3.60;99.90;;;;;;4315199;33;30868;-76
2021/01/18 03:02:11;;;;;;;;;;;3.60;99.90;;;;;;4316182;33;26605;-76
2021/01/18 03:04:41;;;;;;;;;;;3.50;99.90;;;;;;4317243;33;20016;-76
2021/01/18 03:07:30;;;;;;;;;;;3.60;99.90;;;;;;4303744;33;20002;-76
2021/01/18 03:10:05;;;;;;;;;;;3.50;99.90;;;;;;4316182;33;20383;-76
2021/01/18 03:12:45;;;;;;;;;;;3.60;99.90;;;;;;4303783;33;33250;-76
2021/01/18 03:15:15;;;;;;;;;;;3.50;99.90;;;;;;4315964;33;20045;-76
2021/01/18 03:17:44;;;;;;;;;;;3.50;99.90;;;;;;4303699;33;20436;-75
2021/01/18 03:20:13;;;;;;;;;;;3.50;99.90;;;;;;4317453;33;20006;-76
2021/01/18 03:22:41;;;;;;;;;;;3.50;99.90;;;;;;4306644;33;20014;-76
2021/01/18 03:25:11;;;;;;;;;;;3.50;99.90;;;;;;4319984;33;20030;-76
2021/01/18 03:27:47;;;;;;;;;;;3.50;99.90;;;;;;4320187;33;20073;-76
2021/01/18 03:30:17;;;;;;;;;;;3.50;99.90;;;;;;4318689;33;20021;-76
2021/01/18 03:32:46;;;;;;;;;;;3.50;99.90;;;;;;4306771;33;20395;-76
2021/01/18 03:35:16;;;;;;;;;;;3.50;99.90;;;;;;4319888;33;20062;-76
2021/01/18 03:37:52;;;;;;;;;;;3.50;99.90;;;;;;4319908;33;20017;-76
2021/01/18 03:40:23;;;;;;;;;;;3.50;99.90;;;;;;4319771;33;20025;-75
2021/01/18 03:42:56;;;;;;;;;;;3.50;99.90;;;;;;4319135;33;31045;-75
2021/01/18 03:45:26;;;;;;;;;;;3.50;99.90;;;;;;4305840;33;36430;-75
2021/01/18 03:47:53;;;;;;;;;;;3.50;99.90;;;;;;4318916;33;34821;-75
2021/01/18 03:50:19;;;;;;;;;;;3.50;99.90;;;;;;4318967;33;32687;-76
2021/01/18 03:52:49;;;;;;;;;;;3.50;99.90;;;;;;4319293;33;20014;-75
2021/01/18 03:55:17;;;;;;;;;;;3.50;99.90;;;;;;4305743;33;20370;-75
2021/01/18 03:57:47;;;;;;;;;;;3.50;99.90;;;;;;4306822;33;20036;-76
2021/01/18 04:00:14;;;;;;;;;;;3.50;99.90;;;;;;4318568;33;20024;-75
2021/01/18 04:02:45;;;;;;;;;;;3.50;99.90;;;;;;4303340;33;20014;-75
2021/01/18 04:05:15;;;;;;;;;;;3.50;99.90;;;;;;4305100;33;20029;-76
2021/01/18 04:07:50;;;;;;;;;;;3.50;99.90;;;;;;4315632;33;20007;-75
2021/01/18 04:10:23;;;;;;;;;;;3.50;99.90;;;;;;4303548;33;20060;-75
2021/01/18 04:12:56;;;;;;;;;;;3.50;99.90;;;;;;4305038;33;20156;-75
2021/01/18 04:15:29;;;;;;;;;;;3.50;99.90;;;;;;4303694;33;20017;-75
2021/01/18 04:17:58;;;;;;;;;;;3.40;99.90;;;;;;4314451;33;33210;-76
2021/01/18 04:20:31;;;;;;;;;;;3.40;99.90;;;;;;4304600;33;20018;-75
2021/01/18 04:22:58;;;;;;;;;;;3.40;99.90;;;;;;4314651;33;29989;-75
2021/01/18 04:25:30;;;;;;;;;;;3.40;99.90;;;;;;4315884;33;20400;-75
2021/01/18 04:28:03;;;;;;;;;;;3.40;99.90;;;;;;4303852;33;31353;-75
2021/01/18 04:30:34;;;;;;;;;;;3.40;99.90;;;;;;4303853;33;32330;-76
2021/01/18 04:33:05;;;;;;;;;;;3.40;99.90;;;;;;4315308;33;20026;-75
2021/01/18 04:35:39;;;;;;;;;;;3.40;99.90;;;;;;4304871;33;20028;-75
2021/01/18 04:38:14;;;;;;;;;;;3.40;99.90;;;;;;4315234;33;19998;-75
2021/01/18 04:40:43;;;;;;;;;;;3.40;99.90;;;;;;4303317;33;20022;-75
2021/01/18 04:43:14;;;;;;;;;;;3.30;99.90;;;;;;4303518;33;24826;-75
2021/01/18 04:45:41;;;;;;;;;;;3.30;99.90;;;;;;4304017;33;20088;-76
2021/01/18 04:48:08;;;;;;;;;;;3.30;99.90;;;;;;4303790;33;20408;-75
2021/01/18 04:50:35;;;;;;;;;;;3.30;99.90;;;;;;4303300;33;36985;-75
2021/01/18 04:53:08;;;;;;;;;;;3.30;99.90;;;;;;4314485;33;30989;-75
2021/01/18 04:55:44;;;;;;;;;;;3.30;99.90;;;;;;4314270;33;36837;-75
2021/01/18 04:58:10;;;;;;;;;;;3.30;99.90;;;;;;4315340;33;20069;-75
2021/01/18 05:00:43;;;;;;;;;;;3.30;99.90;;;;;;4303724;33;20048;-75
2021/01/18 05:03:13;;;;;;;;;;;3.20;99.90;;;;;;4302724;33;20011;-76
2021/01/18 05:05:47;;;;;;;;;;;3.20;99.90;;;;;;4304209;33;20024;-75
2021/01/18 05:08:32;;;;;;;;;;;3.20;99.90;;;;;;4315581;33;20020;-76
2021/01/18 05:11:01;;;;;;;;;;;3.20;99.90;;;;;;4315314;33;20058;-75
2021/01/18 05:13:32;;;;;;;;;;;3.20;99.90;;;;;;4302673;33;20066;-76
2021/01/18 05:16:02;;;;;;;;;;;3.10;99.90;;;;;;4303800;33;20201;-76
2021/01/18 05:18:33;;;;;;;;;;;3.20;99.90;;;;;;4314621;33;20018;-76
2021/01/18 05:21:03;;;;;;;;;;;3.10;99.90;;;;;;4303443;33;20072;-75
2021/01/18 05:23:37;;;;;;;;;;;3.20;99.90;;;;;;4302901;33;20412;-76
2021/01/18 05:26:20;;;;;;;;;;;3.20;99.90;;;;;;4302908;33;31936;-76
2021/01/18 05:28:50;;;;;;;;;;;3.20;99.90;;;;;;4303778;33;20073;-76
2021/01/18 05:31:26;;;;;;;;;;;3.20;99.90;;;;;;4304015;33;20002;-76
2021/01/18 05:33:56;;;;;;;;;;;3.20;99.90;;;;;;4302409;33;35372;-76
2021/01/18 05:36:41;;;;;;;;;;;3.20;99.90;;;;;;4302535;33;20010;-76
2021/01/18 05:39:10;;;;;;;;;;;3.20;99.90;;;;;;4302943;33;20021;-75
2021/01/18 05:41:40;;;;;;;;;;;3.20;99.90;;;;;;4303288;33;20002;-75
2021/01/18 05:44:10;;;;;;;;;;;3.20;99.90;;;;;;4303412;33;20369;-75
2021/01/18 05:46:39;;;;;;;;;;;3.10;99.90;;;;;;4301914;33;33470;-76
2021/01/18 05:49:14;;;;;;;;;;;3.10;99.90;;;;;;4314548;33;20022;-76
2021/01/18 05:51:52;;;;;;;;;;;3.10;99.90;;;;;;4303743;33;20113;-75
2021/01/18 05:54:20;;;;;;;;;;;3.10;99.90;;;;;;4314843;33;20070;-76
2021/01/18 05:56:56;;;;;;;;;;;3.10;99.90;;;;;;4303017;33;20010;-76
2021/01/18 05:59:29;;;;;;;;;;;3.10;99.90;;;;;;4314432;33;20003;-76
2021/01/18 06:01:55;;;;;;;;;;;3.10;99.90;;;;;;4303907;33;26845;-76
2021/01/18 06:04:31;;;;;;;;;;;3.00;99.90;;;;;;4316737;33;20022;-75
2021/01/18 06:07:01;;;;;;;;;;;3.00;99.90;;;;;;4305148;33;20078;-75
2021/01/18 06:09:43;;;;;;;;;;;3.00;99.90;;;;;;4316842;33;20415;-76
2021/01/18 06:12:19;;;;;;;;;;;2.90;99.90;;;;;;4316989;33;20085;-75
2021/01/18 06:15:05;;;;;;;;;;;2.90;99.90;;;;;;4316744;33;20437;-75
2021/01/18 06:17:35;;;;;;;;;;;3.00;99.90;;;;;;4316381;33;20048;-76
2021/01/18 06:20:09;;;;;;;;;;;2.90;99.90;;;;;;4304284;33;20328;-76
2021/01/18 06:22:41;;;;;;;;;;;2.90;99.90;;;;;;4317633;33;20033;-76
2021/01/18 06:25:31;;;;;;;;;;;2.90;99.90;;;;;;4316743;33;20032;-75
2021/01/18 06:27:57;;;;;;;;;;;2.90;99.90;;;;;;4303939;33;27150;-75
2021/01/18 06:30:27;;;;;;;;;;;2.90;99.90;;;;;;4316250;33;20017;-75
2021/01/18 06:33:02;;;;;;;;;;;2.90;99.90;;;;;;4317052;33;20248;-76
2021/01/18 06:35:30;;;;;;;;;;;2.90;99.90;;;;;;4304397;33;20040;-76
2021/01/18 06:38:07;;;;;;;;;;;2.90;99.90;;;;;;4316576;33;20057;-76
2021/01/18 06:40:39;;;;;;;;;;;2.90;99.90;;;;;;4317391;33;20065;-76
2021/01/18 06:43:15;;;;;;;;;;;2.90;99.90;;;;;;4317479;33;20022;-75
2021/01/18 06:45:45;;;;;;;;;;;2.90;99.90;;;;;;4304234;33;20009;-75
2021/01/18 06:48:18;;;;;;;;;;;3.00;99.90;;;;;;4315837;33;20006;-77
2021/01/18 06:50:53;;;;;;;;;;;2.90;99.90;;;;;;4316624;33;20070;-75
2021/01/18 06:53:31;;;;;;;;;;;2.90;99.90;;;;;;4304324;33;19998;-75
2021/01/18 06:56:32;;;;;;;;;;;3.00;99.90;;;;;;4317136;33;20019;-75
2021/01/18 06:59:16;;;;;;;;;;;3.00;99.90;;;;;;4288914;33;20382;-74
2021/01/18 07:01:45;;;;;;;;;;;3.00;99.90;;;;;;4302578;33;35543;-75
2021/01/18 07:04:14;;;;;;;;;;;3.00;99.90;;;;;;4303473;33;29095;-74
2021/01/18 07:06:45;;;;;;;;;;;3.00;99.90;;;;;;4291046;33;23286;-75
2021/01/18 07:09:16;;;;;;;;;;;3.00;99.90;;;;;;4317093;33;20085;-75
2021/01/18 07:12:04;;;;;;;;;;;3.00;99.90;;;;;;4315652;33;27194;-75
2021/01/18 07:14:31;;;;;;;;;;;3.00;99.90;;;;;;4316487;33;20014;-75
2021/01/18 07:17:12;;;;;;;;;;;3.00;99.90;;;;;;4316088;33;30674;-75
2021/01/18 07:19:46;;;;;;;;;;;3.00;99.90;;;;;;4291807;33;20006;-75
2021/01/18 07:22:39;;;;;;;;;;;3.00;99.90;;;;;;4316258;33;36598;-75
2021/01/18 07:25:40;;;;;;;;;;;3.00;99.90;;;;;;4317278;33;20036;-74
2021/01/18 07:28:27;;;;;;;;;;;3.00;99.90;;;;;;4303390;33;20005;-75
2021/01/18 07:30:54;;;;;;;;;;;3.00;99.90;;;;;;4302824;33;38438;-74
2021/01/18 07:33:26;;;;;;;;;;;3.00;99.90;;;;;;4303166;33;20419;-75
2021/01/18 07:35:59;;;;;;;;;;;3.00;99.90;;;;;;4303097;33;20933;-74
2021/01/18 07:38:37;;;;;;;;;;;3.00;99.90;;;;;;4303754;33;20014;-75
2021/01/18 07:41:09;;;;;;;;;;;3.00;99.90;;;;;;4303671;33;26849;-75
2021/01/18 07:43:40;;;;;;;;;;;2.90;99.90;;;;;;4303511;33;20081;-75
2021/01/18 07:46:35;;;;;;;;;;;3.00;99.90;;;;;;4303842;33;20020;-75
2021/01/18 07:49:14;;;;;;;;;;;3.00;99.90;;;;;;4303625;33;20359;-75
2021/01/18 07:51:49;;;;;;;;;;;3.00;99.90;;;;;;4303884;33;20001;-76
2021/01/18 07:54:34;;;;;;;;;;;3.00;99.90;;;;;;4317088;33;20360;-76
2021/01/18 07:57:19;;;;;;;;;;;3.00;99.90;;;;;;4316841;33;20069;-75
2021/01/18 07:59:48;;;;;;;;;;;3.00;99.90;;;;;;4316510;33;20028;-75
2021/01/18 08:02:24;;;;;;;;;;;3.00;99.90;;;;;;4316698;33;20419;-75
2021/01/18 08:05:14;;;;;;;;;;;3.00;99.90;;;;;;4316764;33;20002;-75
2021/01/18 08:08:01;;;;;;;;;;;3.00;99.90;;;;;;4303044;33;20068;-75
2021/01/18 08:10:47;;;;;;;;;;;3.00;99.90;;;;;;4306105;33;20028;-75
2021/01/18 08:13:38;;;;;;;;;;;3.00;99.90;;;;;;4295338;33;20413;-75
2021/01/18 08:16:11;;;;;;;;;;;3.00;99.90;;;;;;4305645;33;20006;-75
2021/01/18 08:18:55;;;;;;;;;;;3.00;99.90;;;;;;4306290;33;20002;-75
2021/01/18 08:24:15;;;;;;;;;;;3.00;99.90;;;;;;4306111;33;20025;-75
2021/01/18 08:26:51;;;;;;;;;;;3.00;99.90;;;;;;4294192;33;20139;-75
2021/01/18 08:29:38;;;;;;;;;;;3.00;99.90;;;;;;4306290;33;20036;-75
2021/01/18 08:32:25;;;;;;;;;;;3.00;99.90;;;;;;4306219;33;20058;-75
2021/01/18 08:34:51;;;;;;;;;;;3.00;99.90;;;;;;4319241;33;20545;-75
2021/01/18 08:37:27;;;;;;;;;;;3.10;99.90;;;;;;4305896;33;20006;-75
2021/01/18 08:40:02;;;;;;;;;;;3.10;99.90;;;;;;4319251;33;20002;-75
2021/01/18 08:42:44;;;;;;;;;;;3.10;99.90;;;;;;4319313;33;20397;-75
2021/01/18 08:45:19;;;;;;;;;;;3.10;99.90;;;;;;4306122;33;20079;-75
2021/01/18 08:47:53;;;;;;;;;;;3.10;99.90;;;;;;4319122;33;20434;-75
2021/01/18 08:50:28;;;;;;;;;;;3.20;99.90;;;;;;4306075;33;20006;-75
2021/01/18 08:53:07;;;;;;;;;;;3.20;99.90;;;;;;4305117;33;32798;-75
2021/01/18 08:55:40;;;;;;;;;;;3.20;99.90;;;;;;4305812;33;20062;-75
2021/01/18 08:58:07;;;;;;;;;;;3.20;99.90;;;;;;4293511;33;19998;-75
2021/01/18 09:00:43;;;;;;;;;;;3.20;99.90;;;;;;4305619;33;20022;-75
2021/01/18 09:03:20;;;;;;;;;;;3.20;99.90;;;;;;4318417;33;20044;-75
2021/01/18 09:05:53;;;;;;;;;;;3.30;99.90;;;;;;4318186;33;22032;-75
2021/01/18 09:08:20;;;;;;;;;;;3.30;99.90;;;;;;4318253;33;20024;-75
2021/01/18 09:10:51;;;;;;;;;;;3.30;99.90;;;;;;4318488;33;24694;-75
2021/01/18 09:13:19;;;;;;;;;;;3.30;99.90;;;;;;4317632;33;27316;-75
2021/01/18 09:15:46;;;;;;;;;;;3.30;99.90;;;;;;4304538;33;29875;-75
2021/01/18 09:18:13;;;;;;;;;;;3.30;99.90;;;;;;4317619;33;20021;-75
2021/01/18 09:20:41;;;;;;;;;;;3.30;99.90;;;;;;4317061;33;28506;-75
2021/01/18 09:23:09;;;;;;;;;;;3.30;99.90;;;;;;4317690;33;29941;-75
2021/01/18 09:26:07;;;;;;;;;;;3.30;99.90;;;;;;4318101;33;20448;-75
2021/01/18 09:28:34;;;;;;;;;;;3.40;99.90;;;;;;4317915;33;23498;-76
2021/01/18 09:31:08;;;;;;;;;;;3.30;99.90;;;;;;4304580;33;29281;-75
2021/01/18 09:33:36;;;;;;;;;;;3.40;99.90;;;;;;4304803;33;20002;-75
2021/01/18 09:36:03;;;;;;;;;;;3.40;99.90;;;;;;4303611;33;40078;-75
2021/01/18 09:38:32;;;;;;;;;;;3.40;99.90;;;;;;4304492;33;29375;-76
2021/01/18 09:40:59;;;;;;;;;;;3.50;99.90;;;;;;4317206;33;39290;-75
2021/01/18 09:43:28;;;;;;;;;;;3.50;99.90;;;;;;4316984;33;29512;-76
2021/01/18 09:46:01;;;;;;;;;;;3.50;99.90;;;;;;4304907;33;20046;-75
2021/01/18 09:48:34;;;;;;;;;;;3.60;99.90;;;;;;4292428;33;25440;-76
2021/01/18 09:51:15;;;;;;;;;;;3.60;99.90;;;;;;4304595;33;25306;-75
2021/01/18 09:54:05;;;;;;;;;;;3.60;99.90;;;;;;4305165;33;20018;-76
2021/01/18 09:56:33;;;;;;;;;;;3.70;99.90;;;;;;4317059;33;27806;-76
2021/01/18 09:59:11;;;;;;;;;;;3.70;99.90;;;;;;4316780;33;32284;-75
2021/01/18 10:01:42;;;;;;;;;;;3.70;99.90;;;;;;4291652;33;34803;-75
2021/01/18 10:04:20;;;;;;;;;;;3.80;99.90;;;;;;4304026;33;33934;-76
2021/01/18 10:07:04;;;;;;;;;;;3.80;99.90;;;;;;4292822;33;20010;-76
2021/01/18 10:09:33;;;;;;;;;;;3.90;99.90;;;;;;4291921;33;27322;-75
2021/01/18 10:12:04;;;;;;;;;;;3.90;99.90;;;;;;4303958;33;36992;-76
2021/01/18 10:14:38;;;;;;;;;;;3.90;99.90;;;;;;4304434;33;20093;-76
2021/01/18 10:17:09;;;;;;;;;;;4.00;99.90;;;;;;4315982;33;29650;-76
2021/01/18 10:19:39;;;;;;;;;;;4.00;99.90;;;;;;4304380;33;20058;-76
2021/01/18 10:22:19;;;;;;;;;;;4.10;99.90;;;;;;4303576;33;22284;-75
2021/01/18 10:24:59;;;;;;;;;;;4.10;99.90;;;;;;4316947;33;24595;-76
2021/01/18 10:27:26;;;;;;;;;;;4.20;99.90;;;;;;4317352;33;20450;-75
2021/01/18 10:30:07;;;;;;;;;;;4.20;99.90;;;;;;4317636;33;20066;-75
2021/01/18 10:32:44;;;;;;;;;;;4.20;99.90;;;;;;4304147;33;19994;-75
2021/01/18 10:35:23;;;;;;;;;;;4.30;99.90;;;;;;4317509;33;20056;-75
2021/01/18 10:38:11;;;;;;;;;;;4.20;99.90;;;;;;4304613;33;20132;-75
2021/01/18 10:40:39;;;;;;;;;;;4.30;99.90;;;;;;4304363;33;20006;-75
2021/01/18 10:43:09;;;;;;;;;;;4.30;99.90;;;;;;4316202;33;37201;-75
2021/01/18 10:45:41;;;;;;;;;;;4.30;99.90;;;;;;4304054;33;20032;-75
2021/01/18 10:48:17;;;;;;;;;;;4.30;99.90;;;;;;4316590;33;32248;-75
2021/01/18 10:50:54;;;;;;;;;;;4.40;99.90;;;;;;4303576;33;33786;-75
2021/01/18 10:53:25;;;;;;;;;;;4.40;99.90;;;;;;4316547;33;35697;-75
2021/01/18 10:56:08;;;;;;;;;;;4.40;99.90;;;;;;4316435;33;33926;-76
2021/01/18 10:58:35;;;;;;;;;;;4.40;99.80;;;;;;4316156;33;38823;-75
2021/01/18 11:01:11;;;;;;;;;;;4.40;99.80;;;;;;4316660;33;25932;-75
2021/01/18 11:03:40;;;;;;;;;;;4.40;99.80;;;;;;4316060;33;35056;-75
2021/01/18 11:06:14;;;;;;;;;;;4.50;99.90;;;;;;4317413;33;20014;-75
2021/01/18 11:08:41;;;;;;;;;;;4.60;99.90;;;;;;4315892;33;33444;-76
2021/01/18 11:11:21;;;;;;;;;;;4.70;99.90;;;;;;4316169;33;40570;-75
2021/01/18 11:13:58;;;;;;;;;;;4.80;99.80;;;;;;4315302;33;20016;-76
2021/01/18 11:16:25;;;;;;;;;;;4.90;99.80;;;;;;4316988;33;20029;-76
2021/01/18 11:18:57;;;;;;;;;;;5.10;99.70;;;;;;4303213;33;27762;-75
2021/01/18 11:21:27;;;;;;;;;;;5.20;99.60;;;;;;4303960;33;20062;-75
2021/01/18 11:24:00;;;;;;;;;;;5.30;99.50;;;;;;4316592;33;22058;-75
2021/01/18 11:26:29;;;;;;;;;;;5.40;99.40;;;;;;4304132;33;19997;-75
2021/01/18 11:28:59;;;;;;;;;;;5.50;99.30;;;;;;4304059;33;20025;-75
2021/01/18 11:31:25;;;;;;;;;;;5.50;99.20;;;;;;4316124;33;21542;-75
2021/01/18 11:33:52;;;;;;;;;;;5.50;99.10;;;;;;4315927;33;36792;-75
2021/01/18 11:36:25;;;;;;;;;;;5.50;99.20;;;;;;4316519;33;22756;-75
2021/01/18 11:38:55;;;;;;;;;;;5.50;99.10;;;;;;4303337;33;27098;-76
2021/01/18 11:41:27;;;;;;;;;;;5.60;99.10;;;;;;4316659;33;20438;-76
2021/01/18 11:44:03;;;;;;;;;;;5.60;99.10;;;;;;4306958;33;20014;-75
2021/01/18 11:46:31;;;;;;;;;;;5.60;99.00;;;;;;4318862;33;38862;-75
2021/01/18 11:49:04;;;;;;;;;;;5.60;98.90;;;;;;4306476;33;20143;-76
2021/01/18 11:51:30;;;;;;;;;;;5.60;99.00;;;;;;4306477;33;20061;-76
2021/01/18 11:54:11;;;;;;;;;;;5.50;99.00;;;;;;4319452;33;20049;-76
2021/01/18 11:56:38;;;;;;;;;;;5.50;99.00;;;;;;4305631;33;29996;-75
2021/01/18 11:59:14;;;;;;;;;;;5.50;98.90;;;;;;4318787;33;28751;-75
2021/01/18 12:01:49;;;;;;;;;;;5.50;98.90;;;;;;4318969;33;29862;-76
2021/01/18 12:04:16;;;;;;;;;;;5.40;98.90;;;;;;4305756;33;31405;-75
2021/01/18 12:06:43;;;;;;;;;;;5.40;98.90;;;;;;4319048;33;20065;-75
2021/01/18 12:09:16;;;;;;;;;;;5.40;98.90;;;;;;4306379;33;20010;-75
2021/01/18 12:11:46;;;;;;;;;;;5.40;99.00;;;;;;4306608;33;20411;-76
2021/01/18 12:14:15;;;;;;;;;;;5.40;99.00;;;;;;4318485;33;20809;-76
2021/01/18 12:16:44;;;;;;;;;;;5.40;99.00;;;;;;4305765;33;24618;-76
2021/01/18 12:19:14;;;;;;;;;;;5.40;99.00;;;;;;4318056;33;33988;-75
2021/01/18 12:21:41;;;;;;;;;;;5.40;99.00;;;;;;4318760;33;20017;-76
2021/01/18 12:24:08;;;;;;;;;;;5.40;98.90;;;;;;4306053;33;20436;-75
2021/01/18 12:26:35;;;;;;;;;;;5.40;99.00;;;;;;4305727;33;20008;-75
2021/01/18 12:29:02;;;;;;;;;;;5.40;99.00;;;;;;4318314;33;20057;-75
2021/01/18 12:31:28;;;;;;;;;;;5.50;98.90;;;;;;4319557;33;20065;-75
2021/01/18 12:34:04;;;;;;;;;;;5.50;98.90;;;;;;4317979;33;34600;-75
2021/01/18 12:36:33;;;;;;;;;;;5.50;98.90;;;;;;4292530;33;37603;-75
2021/01/18 12:39:09;;;;;;;;;;;5.50;98.90;;;;;;4318440;33;25328;-76
2021/01/18 12:41:39;;;;;;;;;;;5.50;98.90;;;;;;4318507;33;25640;-76
2021/01/18 12:44:09;;;;;;;;;;;5.50;98.80;;;;;;4318362;33;28346;-75
2021/01/18 12:46:38;;;;;;;;;;;5.50;98.90;;;;;;4304657;33;26285;-75
2021/01/18 12:49:08;;;;;;;;;;;5.50;98.80;;;;;;4305521;33;20006;-76
2021/01/18 12:51:35;;;;;;;;;;;5.50;98.90;;;;;;4304573;33;27624;-75
2021/01/18 12:54:08;;;;;;;;;;;5.40;98.90;;;;;;4305604;33;20010;-76
2021/01/18 12:56:38;;;;;;;;;;;5.40;98.90;;;;;;4305447;33;20486;-76
2021/01/18 12:59:13;;;;;;;;;;;5.40;98.90;;;;;;4317712;33;20017;-75
2021/01/18 13:01:40;;;;;;;;;;;5.40;98.90;;;;;;4304764;33;33005;-75
2021/01/18 13:04:15;;;;;;;;;;;5.40;98.90;;;;;;4305463;33;20024;-76
2021/01/18 13:06:42;;;;;;;;;;;5.40;98.90;;;;;;4304834;33;20008;-75
2021/01/18 13:09:13;;;;;;;;;;;5.40;98.90;;;;;;4305513;33;20081;-75
2021/01/18 13:11:46;;;;;;;;;;;5.40;98.90;;;;;;4318848;33;20024;-75
2021/01/18 13:14:17;;;;;;;;;;;5.40;98.90;;;;;;4305734;33;20487;-75
2021/01/18 13:16:49;;;;;;;;;;;5.30;98.80;;;;;;4318655;33;20450;-75
2021/01/18 13:19:24;;;;;;;;;;;5.30;98.80;;;;;;4305420;33;20069;-75
2021/01/18 13:22:00;;;;;;;;;;;5.30;98.90;;;;;;4293309;33;20466;-76
2021/01/18 13:24:32;;;;;;;;;;;5.30;98.90;;;;;;4318444;33;20014;-75
2021/01/18 13:27:07;;;;;;;;;;;5.30;98.90;;;;;;4318003;33;21176;-75
2021/01/18 13:29:37;;;;;;;;;;;5.30;98.90;;;;;;4304639;33;26127;-75
2021/01/18 13:32:07;;;;;;;;;;;5.20;98.90;;;;;;4304388;33;21615;-75
2021/01/18 13:34:34;;;;;;;;;;;5.20;99.00;;;;;;4317557;33;31973;-75
2021/01/18 13:37:07;;;;;;;;;;;5.20;99.00;;;;;;4293005;33;20013;-75
2021/01/18 13:39:40;;;;;;;;;;;5.10;99.00;;;;;;4317413;33;33271;-75
2021/01/18 13:42:09;;;;;;;;;;;5.20;99.10;;;;;;4304674;33;20018;-75
2021/01/18 13:44:37;;;;;;;;;;;5.10;99.10;;;;;;4317951;33;20010;-76
2021/01/18 13:47:06;;;;;;;;;;;5.10;99.10;;;;;;4318062;33;20006;-75
2021/01/18 13:49:33;;;;;;;;;;;5.10;99.10;;;;;;4303881;33;22015;-76
2021/01/18 13:52:00;;;;;;;;;;;5.10;99.10;;;;;;4317345;33;23285;-75
2021/01/18 13:54:29;;;;;;;;;;;5.10;99.10;;;;;;4305650;33;20006;-76
2021/01/18 13:57:05;;;;;;;;;;;5.10;99.10;;;;;;4304810;33;20415;-76
2021/01/18 13:59:33;;;;;;;;;;;5.10;99.10;;;;;;4291829;33;29895;-76
2021/01/18 14:02:00;;;;;;;;;;;5.10;99.10;;;;;;4303704;33;26977;-76
2021/01/18 14:04:46;;;;;;;;;;;5.10;99.00;;;;;;4318014;33;20005;-76
2021/01/18 14:07:12;;;;;;;;;;;5.10;99.10;;;;;;4316687;33;26930;-76
2021/01/18 14:09:39;;;;;;;;;;;5.10;99.00;;;;;;4303953;33;20363;-76
2021/01/18 14:12:09;;;;;;;;;;;5.10;99.10;;;;;;4317949;33;20010;-76
2021/01/18 14:14:36;;;;;;;;;;;5.10;99.00;;;;;;4304127;33;22817;-75
2021/01/18 14:17:06;;;;;;;;;;;5.10;99.00;;;;;;4316844;33;26723;-75
2021/01/18 14:19:35;;;;;;;;;;;5.10;99.00;;;;;;4304651;33;19997;-76
2021/01/18 14:22:04;;;;;;;;;;;5.10;99.00;;;;;;4303238;33;22578;-75
2021/01/18 14:24:36;;;;;;;;;;;5.10;99.00;;;;;;4316884;33;32783;-76
2021/01/18 14:27:05;;;;;;;;;;;5.10;99.00;;;;;;4303680;33;31238;-75
2021/01/18 14:29:31;;;;;;;;;;;5.10;99.00;;;;;;4303220;33;31169;-75
2021/01/18 14:31:58;;;;;;;;;;;5.10;99.00;;;;;;4317220;33;20005;-75
2021/01/18 14:34:30;;;;;;;;;;;5.10;99.00;;;;;;4316793;33;31374;-76
2021/01/18 14:36:57;;;;;;;;;;;5.10;98.90;;;;;;4303597;33;20192;-75
2021/01/18 14:39:32;;;;;;;;;;;5.20;98.90;;;;;;4292220;33;20007;-75
2021/01/18 14:41:59;;;;;;;;;;;5.10;98.90;;;;;;4316518;33;39401;-76
2021/01/18 14:44:29;;;;;;;;;;;5.10;98.90;;;;;;4303849;33;23819;-76
2021/01/18 14:46:58;;;;;;;;;;;5.10;98.90;;;;;;4317272;33;20018;-76
2021/01/18 14:49:33;;;;;;;;;;;5.10;98.90;;;;;;4304065;33;20002;-75
2021/01/18 14:52:03;;;;;;;;;;;5.10;98.90;;;;;;4316892;33;23412;-75
2021/01/18 14:54:33;;;;;;;;;;;5.10;98.90;;;;;;4316912;33;22619;-75
2021/01/18 14:57:04;;;;;;;;;;;5.10;98.90;;;;;;4303826;33;20025;-75
2021/01/18 14:59:36;;;;;;;;;;;5.10;98.90;;;;;;4317482;33;20434;-76
2021/01/18 15:02:03;;;;;;;;;;;5.10;98.90;;;;;;4303461;33;20006;-75
2021/01/18 15:04:30;;;;;;;;;;;5.10;98.90;;;;;;4316424;33;39982;-75